<?xml version="1.0" encoding="UTF-8" standalone="no" ?>
<gpx xmlns="http://www.topografix.com/GPX/1/1" xmlns:xsi="http://www.w3.org/2001/XMLSchema-instance" xsi:schemaLocation="http://www.topografix.com/GPX/1/1 http://www.topografix.com/GPX/1/1/gpx.xsd" version="1.1" creator="VisuGPX - https://www.visugpx.com">
  <metadata>
    <name>Les Sallèles - La croix noire</name>
    <desc><![CDATA[Boucle de la mairie à l'église à travers la montagne des Sallèles.]]></desc>
  </metadata>
  <trk>
    <name><![CDATA[14711418-Croix noire circuit 45]]></name>
    <trkseg>
      <trkpt lat="44.43426" lon="4.10313">
        <ele>389</ele>
        <time>2022-09-14T08:11:12Z</time>
      </trkpt>
      <trkpt lat="44.43415" lon="4.10318">
        <ele>388</ele>
        <time>2022-09-14T08:11:21Z</time>
      </trkpt>
      <trkpt lat="44.43407" lon="4.10349">
        <ele>387</ele>
        <time>2022-09-14T08:11:40Z</time>
      </trkpt>
      <trkpt lat="44.43395" lon="4.1037">
        <ele>386</ele>
        <time>2022-09-14T08:11:55Z</time>
      </trkpt>
      <trkpt lat="44.43386" lon="4.10375">
        <ele>385</ele>
        <time>2022-09-14T08:12:03Z</time>
      </trkpt>
      <trkpt lat="44.43381" lon="4.10372">
        <ele>384</ele>
        <time>2022-09-14T08:12:08Z</time>
      </trkpt>
      <trkpt lat="44.4337" lon="4.10379">
        <ele>383</ele>
        <time>2022-09-14T08:12:17Z</time>
      </trkpt>
      <trkpt lat="44.43349" lon="4.1038">
        <ele>381</ele>
        <time>2022-09-14T08:12:34Z</time>
      </trkpt>
      <trkpt lat="44.43338" lon="4.1039">
        <ele>380</ele>
        <time>2022-09-14T08:12:45Z</time>
      </trkpt>
      <trkpt lat="44.43308" lon="4.10441">
        <ele>380</ele>
        <time>2022-09-14T08:13:22Z</time>
      </trkpt>
      <trkpt lat="44.43283" lon="4.10445">
        <ele>377</ele>
        <time>2022-09-14T08:13:43Z</time>
      </trkpt>
      <trkpt lat="44.43231" lon="4.10436">
        <ele>372</ele>
        <time>2022-09-14T08:14:24Z</time>
      </trkpt>
      <trkpt lat="44.43115" lon="4.10462">
        <ele>364</ele>
        <time>2022-09-14T08:15:59Z</time>
      </trkpt>
      <trkpt lat="44.43087" lon="4.10476">
        <ele>363</ele>
        <time>2022-09-14T08:16:22Z</time>
      </trkpt>
      <trkpt lat="44.43066" lon="4.10502">
        <ele>363</ele>
        <time>2022-09-14T08:16:45Z</time>
      </trkpt>
      <trkpt lat="44.43018" lon="4.10523">
        <ele>358</ele>
        <time>2022-09-14T08:17:25Z</time>
      </trkpt>
      <trkpt lat="44.43001" lon="4.1054">
        <ele>357</ele>
        <time>2022-09-14T08:17:42Z</time>
      </trkpt>
      <trkpt lat="44.42992" lon="4.1056">
        <ele>355</ele>
        <time>2022-09-14T08:17:55Z</time>
      </trkpt>
      <trkpt lat="44.42996" lon="4.10572">
        <ele>354</ele>
        <time>2022-09-14T08:18:03Z</time>
      </trkpt>
      <trkpt lat="44.43012" lon="4.10586">
        <ele>354</ele>
        <time>2022-09-14T08:18:18Z</time>
      </trkpt>
      <trkpt lat="44.43027" lon="4.1059">
        <ele>353</ele>
        <time>2022-09-14T08:18:30Z</time>
      </trkpt>
      <trkpt lat="44.43039" lon="4.10588">
        <ele>354</ele>
        <time>2022-09-14T08:18:40Z</time>
      </trkpt>
      <trkpt lat="44.43052" lon="4.10593">
        <ele>353</ele>
        <time>2022-09-14T08:18:51Z</time>
      </trkpt>
      <trkpt lat="44.4306" lon="4.10616">
        <ele>350</ele>
        <time>2022-09-14T08:19:05Z</time>
      </trkpt>
      <trkpt lat="44.43076" lon="4.10625">
        <ele>349</ele>
        <time>2022-09-14T08:19:19Z</time>
      </trkpt>
      <trkpt lat="44.43086" lon="4.10626">
        <ele>349</ele>
        <time>2022-09-14T08:19:27Z</time>
      </trkpt>
      <trkpt lat="44.43117" lon="4.1066">
        <ele>349</ele>
        <time>2022-09-14T08:19:59Z</time>
      </trkpt>
      <trkpt lat="44.43117" lon="4.10668">
        <ele>349</ele>
        <time>2022-09-14T08:20:03Z</time>
      </trkpt>
      <trkpt lat="44.43108" lon="4.10683">
        <ele>345</ele>
        <time>2022-09-14T08:20:14Z</time>
      </trkpt>
      <trkpt lat="44.43114" lon="4.10759">
        <ele>337</ele>
        <time>2022-09-14T08:20:58Z</time>
      </trkpt>
      <trkpt lat="44.43106" lon="4.10782">
        <ele>333</ele>
        <time>2022-09-14T08:21:13Z</time>
      </trkpt>
      <trkpt lat="44.43105" lon="4.108">
        <ele>330</ele>
        <time>2022-09-14T08:21:23Z</time>
      </trkpt>
      <trkpt lat="44.43096" lon="4.10819">
        <ele>325</ele>
        <time>2022-09-14T08:21:36Z</time>
      </trkpt>
      <trkpt lat="44.43096" lon="4.1083">
        <ele>324</ele>
        <time>2022-09-14T08:21:42Z</time>
      </trkpt>
      <trkpt lat="44.43101" lon="4.10843">
        <ele>323</ele>
        <time>2022-09-14T08:21:51Z</time>
      </trkpt>
      <trkpt lat="44.43168" lon="4.10913">
        <ele>326</ele>
        <time>2022-09-14T08:22:58Z</time>
      </trkpt>
      <trkpt lat="44.43165" lon="4.1094">
        <ele>324</ele>
        <time>2022-09-14T08:23:13Z</time>
      </trkpt>
      <trkpt lat="44.43158" lon="4.10961">
        <ele>322</ele>
        <time>2022-09-14T08:23:27Z</time>
      </trkpt>
      <trkpt lat="44.43151" lon="4.1097">
        <ele>321</ele>
        <time>2022-09-14T08:23:34Z</time>
      </trkpt>
      <trkpt lat="44.43123" lon="4.10988">
        <ele>314</ele>
        <time>2022-09-14T08:23:59Z</time>
      </trkpt>
      <trkpt lat="44.43092" lon="4.11">
        <ele>307</ele>
        <time>2022-09-14T08:24:25Z</time>
      </trkpt>
      <trkpt lat="44.43007" lon="4.11055">
        <ele>300</ele>
        <time>2022-09-14T08:25:40Z</time>
      </trkpt>
      <trkpt lat="44.42969" lon="4.11072">
        <ele>295</ele>
        <time>2022-09-14T08:26:12Z</time>
      </trkpt>
      <trkpt lat="44.42898" lon="4.11122">
        <ele>285</ele>
        <time>2022-09-14T08:27:15Z</time>
      </trkpt>
      <trkpt lat="44.42865" lon="4.11153">
        <ele>280</ele>
        <time>2022-09-14T08:27:47Z</time>
      </trkpt>
      <trkpt lat="44.42862" lon="4.11151">
        <ele>278</ele>
        <time>2022-09-14T08:27:50Z</time>
      </trkpt>
      <trkpt lat="44.42863" lon="4.11141">
        <ele>276</ele>
        <time>2022-09-14T08:27:55Z</time>
      </trkpt>
      <trkpt lat="44.42887" lon="4.11086">
        <ele>275</ele>
        <time>2022-09-14T08:28:32Z</time>
      </trkpt>
      <trkpt lat="44.42888" lon="4.11073">
        <ele>273</ele>
        <time>2022-09-14T08:28:40Z</time>
      </trkpt>
      <trkpt lat="44.42884" lon="4.11071">
        <ele>271</ele>
        <time>2022-09-14T08:28:43Z</time>
      </trkpt>
      <trkpt lat="44.42873" lon="4.11077">
        <ele>267</ele>
        <time>2022-09-14T08:28:53Z</time>
      </trkpt>
      <trkpt lat="44.42854" lon="4.11104">
        <ele>266</ele>
        <time>2022-09-14T08:29:14Z</time>
      </trkpt>
      <trkpt lat="44.42822" lon="4.11132">
        <ele>257</ele>
        <time>2022-09-14T08:29:45Z</time>
      </trkpt>
      <trkpt lat="44.42816" lon="4.11133">
        <ele>253</ele>
        <time>2022-09-14T08:29:49Z</time>
      </trkpt>
      <trkpt lat="44.42823" lon="4.11121">
        <ele>255</ele>
        <time>2022-09-14T08:29:58Z</time>
      </trkpt>
      <trkpt lat="44.42829" lon="4.11077">
        <ele>249</ele>
        <time>2022-09-14T08:30:24Z</time>
      </trkpt>
      <trkpt lat="44.42848" lon="4.1104">
        <ele>250</ele>
        <time>2022-09-14T08:30:50Z</time>
      </trkpt>
      <trkpt lat="44.42859" lon="4.11027">
        <ele>252</ele>
        <time>2022-09-14T08:31:01Z</time>
      </trkpt>
      <trkpt lat="44.42861" lon="4.10999">
        <ele>248</ele>
        <time>2022-09-14T08:31:18Z</time>
      </trkpt>
      <trkpt lat="44.42857" lon="4.10991">
        <ele>249</ele>
        <time>2022-09-14T08:31:23Z</time>
      </trkpt>
      <trkpt lat="44.4285" lon="4.1099">
        <ele>247</ele>
        <time>2022-09-14T08:31:29Z</time>
      </trkpt>
      <trkpt lat="44.42843" lon="4.10983">
        <ele>247</ele>
        <time>2022-09-14T08:31:36Z</time>
      </trkpt>
      <trkpt lat="44.42831" lon="4.10989">
        <ele>241</ele>
        <time>2022-09-14T08:31:46Z</time>
      </trkpt>
      <trkpt lat="44.42818" lon="4.10977">
        <ele>239</ele>
        <time>2022-09-14T08:31:58Z</time>
      </trkpt>
      <trkpt lat="44.42812" lon="4.10977">
        <ele>236</ele>
        <time>2022-09-14T08:32:03Z</time>
      </trkpt>
      <trkpt lat="44.42771" lon="4.10952">
        <ele>222</ele>
        <time>2022-09-14T08:32:39Z</time>
      </trkpt>
      <trkpt lat="44.4276" lon="4.10874">
        <ele>231</ele>
        <time>2022-09-14T08:33:24Z</time>
      </trkpt>
      <trkpt lat="44.4275" lon="4.1085">
        <ele>228</ele>
        <time>2022-09-14T08:33:40Z</time>
      </trkpt>
      <trkpt lat="44.42749" lon="4.10809">
        <ele>235</ele>
        <time>2022-09-14T08:34:04Z</time>
      </trkpt>
      <trkpt lat="44.42738" lon="4.10774">
        <ele>235</ele>
        <time>2022-09-14T08:34:26Z</time>
      </trkpt>
      <trkpt lat="44.42719" lon="4.10746">
        <ele>230</ele>
        <time>2022-09-14T08:34:48Z</time>
      </trkpt>
      <trkpt lat="44.42712" lon="4.10718">
        <ele>234</ele>
        <time>2022-09-14T08:35:05Z</time>
      </trkpt>
      <trkpt lat="44.42686" lon="4.1069">
        <ele>229</ele>
        <time>2022-09-14T08:35:31Z</time>
      </trkpt>
      <trkpt lat="44.42677" lon="4.10671">
        <ele>231</ele>
        <time>2022-09-14T08:35:44Z</time>
      </trkpt>
      <trkpt lat="44.42657" lon="4.10647">
        <ele>232</ele>
        <time>2022-09-14T08:36:05Z</time>
      </trkpt>
      <trkpt lat="44.4262" lon="4.10632">
        <ele>225</ele>
        <time>2022-09-14T08:36:36Z</time>
      </trkpt>
      <trkpt lat="44.42585" lon="4.10611">
        <ele>222</ele>
        <time>2022-09-14T08:37:06Z</time>
      </trkpt>
      <trkpt lat="44.42538" lon="4.10564">
        <ele>228</ele>
        <time>2022-09-14T08:37:53Z</time>
      </trkpt>
      <trkpt lat="44.42476" lon="4.1056">
        <ele>212</ele>
        <time>2022-09-14T08:38:42Z</time>
      </trkpt>
      <trkpt lat="44.42462" lon="4.10556">
        <ele>211</ele>
        <time>2022-09-14T08:38:54Z</time>
      </trkpt>
      <trkpt lat="44.42418" lon="4.10533">
        <ele>211</ele>
        <time>2022-09-14T08:39:31Z</time>
      </trkpt>
      <trkpt lat="44.42388" lon="4.10506">
        <ele>213</ele>
        <time>2022-09-14T08:40:00Z</time>
      </trkpt>
      <trkpt lat="44.42359" lon="4.10494">
        <ele>208</ele>
        <time>2022-09-14T08:40:24Z</time>
      </trkpt>
      <trkpt lat="44.42329" lon="4.10469">
        <ele>210</ele>
        <time>2022-09-14T08:40:52Z</time>
      </trkpt>
      <trkpt lat="44.42299" lon="4.1046">
        <ele>209</ele>
        <time>2022-09-14T08:41:17Z</time>
      </trkpt>
      <trkpt lat="44.42269" lon="4.1046">
        <ele>204</ele>
        <time>2022-09-14T08:41:41Z</time>
      </trkpt>
      <trkpt lat="44.42254" lon="4.10455">
        <ele>203</ele>
        <time>2022-09-14T08:41:53Z</time>
      </trkpt>
      <trkpt lat="44.42235" lon="4.10439">
        <ele>208</ele>
        <time>2022-09-14T08:42:11Z</time>
      </trkpt>
      <trkpt lat="44.42216" lon="4.1043">
        <ele>211</ele>
        <time>2022-09-14T08:42:27Z</time>
      </trkpt>
      <trkpt lat="44.42159" lon="4.10425">
        <ele>211</ele>
        <time>2022-09-14T08:43:13Z</time>
      </trkpt>
      <trkpt lat="44.42139" lon="4.10413">
        <ele>215</ele>
        <time>2022-09-14T08:43:30Z</time>
      </trkpt>
      <trkpt lat="44.42111" lon="4.10409">
        <ele>216</ele>
        <time>2022-09-14T08:43:52Z</time>
      </trkpt>
      <trkpt lat="44.42095" lon="4.10417">
        <ele>216</ele>
        <time>2022-09-14T08:44:06Z</time>
      </trkpt>
      <trkpt lat="44.42061" lon="4.10422">
        <ele>214</ele>
        <time>2022-09-14T08:44:33Z</time>
      </trkpt>
      <trkpt lat="44.42047" lon="4.10432">
        <ele>211</ele>
        <time>2022-09-14T08:44:46Z</time>
      </trkpt>
      <trkpt lat="44.42027" lon="4.10435">
        <ele>210</ele>
        <time>2022-09-14T08:45:02Z</time>
      </trkpt>
      <trkpt lat="44.41989" lon="4.10467">
        <ele>202</ele>
        <time>2022-09-14T08:45:38Z</time>
      </trkpt>
      <trkpt lat="44.41968" lon="4.10472">
        <ele>199</ele>
        <time>2022-09-14T08:45:55Z</time>
      </trkpt>
      <trkpt lat="44.41932" lon="4.1044">
        <ele>199</ele>
        <time>2022-09-14T08:46:29Z</time>
      </trkpt>
      <trkpt lat="44.41921" lon="4.10424">
        <ele>198</ele>
        <time>2022-09-14T08:46:42Z</time>
      </trkpt>
      <trkpt lat="44.41923" lon="4.10416">
        <ele>198</ele>
        <time>2022-09-14T08:46:46Z</time>
      </trkpt>
      <trkpt lat="44.41938" lon="4.10397">
        <ele>196</ele>
        <time>2022-09-14T08:47:03Z</time>
      </trkpt>
      <trkpt lat="44.41967" lon="4.10385">
        <ele>199</ele>
        <time>2022-09-14T08:47:27Z</time>
      </trkpt>
      <trkpt lat="44.42001" lon="4.10384">
        <ele>205</ele>
        <time>2022-09-14T08:47:54Z</time>
      </trkpt>
      <trkpt lat="44.42034" lon="4.1037">
        <ele>207</ele>
        <time>2022-09-14T08:48:22Z</time>
      </trkpt>
      <trkpt lat="44.42051" lon="4.10355">
        <ele>208</ele>
        <time>2022-09-14T08:48:38Z</time>
      </trkpt>
      <trkpt lat="44.4206" lon="4.10358">
        <ele>210</ele>
        <time>2022-09-14T08:48:45Z</time>
      </trkpt>
      <trkpt lat="44.4207" lon="4.10356">
        <ele>212</ele>
        <time>2022-09-14T08:48:53Z</time>
      </trkpt>
      <trkpt lat="44.4214" lon="4.10319">
        <ele>222</ele>
        <time>2022-09-14T08:49:53Z</time>
      </trkpt>
      <trkpt lat="44.42166" lon="4.1031">
        <ele>226</ele>
        <time>2022-09-14T08:50:15Z</time>
      </trkpt>
      <trkpt lat="44.42185" lon="4.10312">
        <ele>231</ele>
        <time>2022-09-14T08:50:30Z</time>
      </trkpt>
      <trkpt lat="44.42204" lon="4.10305">
        <ele>234</ele>
        <time>2022-09-14T08:50:46Z</time>
      </trkpt>
      <trkpt lat="44.42223" lon="4.10293">
        <ele>237</ele>
        <time>2022-09-14T08:51:02Z</time>
      </trkpt>
      <trkpt lat="44.42246" lon="4.10266">
        <ele>240</ele>
        <time>2022-09-14T08:51:26Z</time>
      </trkpt>
      <trkpt lat="44.42264" lon="4.10257">
        <ele>243</ele>
        <time>2022-09-14T08:51:42Z</time>
      </trkpt>
      <trkpt lat="44.42312" lon="4.10258">
        <ele>254</ele>
        <time>2022-09-14T08:52:20Z</time>
      </trkpt>
      <trkpt lat="44.42343" lon="4.10283">
        <ele>261</ele>
        <time>2022-09-14T08:52:49Z</time>
      </trkpt>
      <trkpt lat="44.42342" lon="4.10289">
        <ele>261</ele>
        <time>2022-09-14T08:52:52Z</time>
      </trkpt>
      <trkpt lat="44.42352" lon="4.10302">
        <ele>264</ele>
        <time>2022-09-14T08:53:03Z</time>
      </trkpt>
      <trkpt lat="44.42374" lon="4.10305">
        <ele>268</ele>
        <time>2022-09-14T08:53:21Z</time>
      </trkpt>
      <trkpt lat="44.42402" lon="4.10291">
        <ele>271</ele>
        <time>2022-09-14T08:53:45Z</time>
      </trkpt>
      <trkpt lat="44.42462" lon="4.1028">
        <ele>279</ele>
        <time>2022-09-14T08:54:33Z</time>
      </trkpt>
      <trkpt lat="44.4249" lon="4.10264">
        <ele>280</ele>
        <time>2022-09-14T08:54:57Z</time>
      </trkpt>
      <trkpt lat="44.42521" lon="4.10259">
        <ele>284</ele>
        <time>2022-09-14T08:55:22Z</time>
      </trkpt>
      <trkpt lat="44.42534" lon="4.10261">
        <ele>287</ele>
        <time>2022-09-14T08:55:33Z</time>
      </trkpt>
      <trkpt lat="44.42551" lon="4.10256">
        <ele>289</ele>
        <time>2022-09-14T08:55:47Z</time>
      </trkpt>
      <trkpt lat="44.4257" lon="4.10263">
        <ele>293</ele>
        <time>2022-09-14T08:56:02Z</time>
      </trkpt>
      <trkpt lat="44.42592" lon="4.10264">
        <ele>297</ele>
        <time>2022-09-14T08:56:20Z</time>
      </trkpt>
      <trkpt lat="44.42606" lon="4.10257">
        <ele>298</ele>
        <time>2022-09-14T08:56:32Z</time>
      </trkpt>
      <trkpt lat="44.42653" lon="4.10257">
        <ele>305</ele>
        <time>2022-09-14T08:57:10Z</time>
      </trkpt>
      <trkpt lat="44.42672" lon="4.10248">
        <ele>306</ele>
        <time>2022-09-14T08:57:26Z</time>
      </trkpt>
      <trkpt lat="44.42675" lon="4.10253">
        <ele>308</ele>
        <time>2022-09-14T08:57:29Z</time>
      </trkpt>
      <trkpt lat="44.42673" lon="4.10259">
        <ele>309</ele>
        <time>2022-09-14T08:57:33Z</time>
      </trkpt>
      <trkpt lat="44.42658" lon="4.10285">
        <ele>311</ele>
        <time>2022-09-14T08:57:52Z</time>
      </trkpt>
      <trkpt lat="44.42664" lon="4.10292">
        <ele>313</ele>
        <time>2022-09-14T08:57:58Z</time>
      </trkpt>
      <trkpt lat="44.42673" lon="4.10294">
        <ele>315</ele>
        <time>2022-09-14T08:58:06Z</time>
      </trkpt>
      <trkpt lat="44.42685" lon="4.10313">
        <ele>320</ele>
        <time>2022-09-14T08:58:20Z</time>
      </trkpt>
      <trkpt lat="44.42699" lon="4.10324">
        <ele>323</ele>
        <time>2022-09-14T08:58:33Z</time>
      </trkpt>
      <trkpt lat="44.42746" lon="4.10342">
        <ele>331</ele>
        <time>2022-09-14T08:59:12Z</time>
      </trkpt>
      <trkpt lat="44.42778" lon="4.10344">
        <ele>334</ele>
        <time>2022-09-14T08:59:38Z</time>
      </trkpt>
      <trkpt lat="44.4283" lon="4.10354">
        <ele>339</ele>
        <time>2022-09-14T09:00:20Z</time>
      </trkpt>
      <trkpt lat="44.42845" lon="4.10366">
        <ele>341</ele>
        <time>2022-09-14T09:00:34Z</time>
      </trkpt>
      <trkpt lat="44.42872" lon="4.10404">
        <ele>347</ele>
        <time>2022-09-14T09:01:04Z</time>
      </trkpt>
      <trkpt lat="44.42923" lon="4.10433">
        <ele>353</ele>
        <time>2022-09-14T09:01:48Z</time>
      </trkpt>
      <trkpt lat="44.42993" lon="4.10442">
        <ele>358</ele>
        <time>2022-09-14T09:02:45Z</time>
      </trkpt>
      <trkpt lat="44.43058" lon="4.10476">
        <ele>362</ele>
        <time>2022-09-14T09:03:40Z</time>
      </trkpt>
      <trkpt lat="44.43075" lon="4.10479">
        <ele>363</ele>
        <time>2022-09-14T09:03:54Z</time>
      </trkpt>
      <trkpt lat="44.43094" lon="4.10466">
        <ele>363</ele>
        <time>2022-09-14T09:04:11Z</time>
      </trkpt>
      <trkpt lat="44.43123" lon="4.10455">
        <ele>365</ele>
        <time>2022-09-14T09:04:35Z</time>
      </trkpt>
      <trkpt lat="44.43208" lon="4.10434">
        <ele>370</ele>
        <time>2022-09-14T09:05:44Z</time>
      </trkpt>
      <trkpt lat="44.43236" lon="4.10431">
        <ele>372</ele>
        <time>2022-09-14T09:06:07Z</time>
      </trkpt>
      <trkpt lat="44.43283" lon="4.10442">
        <ele>377</ele>
        <time>2022-09-14T09:06:45Z</time>
      </trkpt>
      <trkpt lat="44.43299" lon="4.10441">
        <ele>379</ele>
        <time>2022-09-14T09:06:58Z</time>
      </trkpt>
      <trkpt lat="44.43311" lon="4.10433">
        <ele>380</ele>
        <time>2022-09-14T09:07:08Z</time>
      </trkpt>
      <trkpt lat="44.43344" lon="4.10389">
        <ele>381</ele>
        <time>2022-09-14T09:07:45Z</time>
      </trkpt>
      <trkpt lat="44.43362" lon="4.10349">
        <ele>381</ele>
        <time>2022-09-14T09:08:12Z</time>
      </trkpt>
      <trkpt lat="44.43389" lon="4.10309">
        <ele>383</ele>
        <time>2022-09-14T09:08:43Z</time>
      </trkpt>
      <trkpt lat="44.43401" lon="4.10302">
        <ele>385</ele>
        <time>2022-09-14T09:08:54Z</time>
      </trkpt>
      <trkpt lat="44.43422" lon="4.10307">
        <ele>389</ele>
        <time>2022-09-14T09:09:11Z</time>
      </trkpt>
    </trkseg>
  </trk>
</gpx>